Time;durP1;ratioP1;P1;durP2;ratioP2;P2;SDS_P1;SDS_P2;PMS_P1;PMS_P2;Temp;Humidity;BMP_temperature;BMP_pressure;BME280_temperature;BME280_humidity;BME280_pressure;Samples;Min_cycle;Max_cycle;Signal;HPM_P1;HPM_P2
2021/11/20 00:01:14;;;;;;;14.43;6.32;;;;;;;;;;4942889;29;20052;-80
2021/11/20 00:04:19;;;;;;;14.02;6.50;;;;;;;;;;4942483;29;20036;-80
2021/11/20 00:07:24;;;;;;;9.23;5.90;;;;;;;;;;4942953;29;20046;-79
2021/11/20 00:10:29;;;;;;;13.48;8.43;;;;;;;;;;4943610;29;20376;-79
2021/11/20 00:13:33;;;;;;;14.10;7.82;;;;;;;;;;4942992;29;20051;-80
2021/11/20 00:16:38;;;;;;;18.75;8.77;;;;;;;;;;4943021;29;20518;-79
2021/11/20 00:19:44;;;;;;;12.60;8.80;;;;;;;;;;4943756;29;20043;-78
2021/11/20 00:22:49;;;;;;;16.33;9.77;;;;;;;;;;4941843;29;20039;-79
2021/11/20 00:25:56;;;;;;;17.45;9.32;;;;;;;;;;4942218;29;20047;-79
2021/11/20 00:32:10;;;;;;;20.17;10.45;;;;;;;;;;4940770;29;20047;-78
2021/11/20 00:35:22;;;;;;;16.85;10.48;;;;;;;;;;4941896;29;20051;-79
2021/11/20 00:38:27;;;;;;;;;;;;;;;;;;4941614;29;20055;-78
2021/11/20 00:41:31;;;;;;;17.20;10.77;;;;;;;;;;4942064;29;19922;-79
2021/11/20 00:44:36;;;;;;;19.50;10.43;;;;;;;;;;4941536;29;20055;-79
2021/11/20 00:47:40;;;;;;;15.60;10.75;;;;;;;;;;4941203;29;20415;-80
2021/11/20 00:50:46;;;;;;;18.27;11.00;;;;;;;;;;4941842;29;20051;-79
2021/11/20 00:53:51;;;;;;;15.75;9.70;;;;;;;;;;4941662;29;20055;-80
2021/11/20 00:56:56;;;;;;;17.77;10.05;;;;;;;;;;4942845;29;20144;-80
2021/11/20 01:00:02;;;;;;;20.30;10.10;;;;;;;;;;4943044;29;20051;-78
2021/11/20 01:03:07;;;;;;;19.55;10.77;;;;;;;;;;4942265;29;20043;-78
2021/11/20 01:06:11;;;;;;;14.40;9.15;;;;;;;;;;4942516;29;20046;-79
2021/11/20 01:09:18;;;;;;;19.05;9.77;;;;;;;;;;4929741;29;20039;-79
2021/11/20 01:12:25;;;;;;;21.73;10.20;;;;;;;;;;4941605;29;20035;-77
2021/11/20 01:15:32;;;;;;;16.13;8.98;;;;;;;;;;4942304;29;20063;-81
2021/11/20 01:18:38;;;;;;;16.70;9.55;;;;;;;;;;4941714;29;20039;-79
2021/11/20 01:22:08;;;;;;;20.15;9.50;;;;;;;;;;4942298;29;20054;-79
2021/11/20 01:25:34;;;;;;;16.75;9.05;;;;;;;;;;4942581;29;20039;-79
2021/11/20 01:28:49;;;;;;;17.10;9.02;;;;;;;;;;4942214;29;20036;-79
2021/11/20 01:32:10;;;;;;;17.63;9.70;;;;;;;;;;4941373;29;20551;-80
2021/11/20 01:35:16;;;;;;;14.10;9.20;;;;;;;;;;4931064;29;20052;-79
2021/11/20 01:38:34;;;;;;;15.77;8.80;;;;;;;;;;4942213;29;20040;-81
2021/11/20 01:41:55;;;;;;;20.20;9.15;;;;;;;;;;4932761;29;20060;-80
2021/11/20 01:45:12;;;;;;;13.75;9.00;;;;;;;;;;4942730;29;20499;-79
2021/11/20 01:48:23;;;;;;;16.15;9.55;;;;;;;;;;4942428;29;20031;-79
2021/11/20 01:51:31;;;;;;;19.45;10.32;;;;;;;;;;4941362;29;20051;-78
2021/11/20 01:54:58;;;;;;;16.88;10.43;;;;;;;;;;4940266;29;20515;-79
2021/11/20 01:58:25;;;;;;;20.52;9.93;;;;;;;;;;4940828;29;20554;-79
2021/11/20 02:01:43;;;;;;;27.65;10.32;;;;;;;;;;4940644;29;20048;-79
2021/11/20 02:05:11;;;;;;;25.88;9.88;;;;;;;;;;4941700;29;20043;-80
2021/11/20 02:08:29;;;;;;;15.25;9.32;;;;;;;;;;4941624;29;20047;-80
2021/11/20 02:11:37;;;;;;;17.35;10.40;;;;;;;;;;4940976;29;20047;-79
2021/11/20 02:14:43;;;;;;;14.90;9.77;;;;;;;;;;4939882;29;20058;-79
2021/11/20 02:17:50;;;;;;;20.27;11.18;;;;;;;;;;4940227;29;20045;-79
2021/11/20 02:21:06;;;;;;;18.75;9.63;;;;;;;;;;4940760;29;20051;-80
2021/11/20 02:24:18;;;;;;;18.00;10.65;;;;;;;;;;4943976;29;20046;-78
2021/11/20 02:28:03;;;;;;;16.15;10.65;;;;;;;;;;4937183;29;20050;-79
2021/11/20 02:31:08;;;;;;;18.75;10.70;;;;;;;;;;4932905;29;20055;-79
2021/11/20 02:34:14;;;;;;;19.38;10.57;;;;;;;;;;4944482;29;20066;-79
2021/11/20 02:37:20;;;;;;;20.20;10.73;;;;;;;;;;4943780;29;20047;-79
2021/11/20 02:40:26;;;;;;;18.98;10.35;;;;;;;;;;4933129;29;20050;-79
2021/11/20 02:43:36;;;;;;;16.40;9.80;;;;;;;;;;4944132;29;20043;-79
2021/11/20 02:46:48;;;;;;;18.70;10.25;;;;;;;;;;4934130;29;20043;-80
2021/11/20 02:49:52;;;;;;;18.15;9.68;;;;;;;;;;4943502;29;20043;-79
2021/11/20 02:52:58;;;;;;;17.10;10.25;;;;;;;;;;4943515;29;20055;-79
2021/11/20 02:56:04;;;;;;;18.00;10.25;;;;;;;;;;4943819;29;20051;-80
2021/11/20 02:59:11;;;;;;;18.23;10.38;;;;;;;;;;4943864;29;20035;-79
2021/11/20 03:02:22;;;;;;;19.88;9.77;;;;;;;;;;4943896;29;20050;-79
2021/11/20 03:05:27;;;;;;;19.77;9.80;;;;;;;;;;4933079;29;20052;-79
2021/11/20 03:08:31;;;;;;;17.67;10.18;;;;;;;;;;4943657;29;20048;-80
2021/11/20 03:11:43;;;;;;;21.07;11.03;;;;;;;;;;4943043;29;20055;-79
2021/11/20 03:14:47;;;;;;;25.77;11.30;;;;;;;;;;4942401;29;20054;-79
2021/11/20 03:17:53;;;;;;;23.50;12.10;;;;;;;;;;4931898;29;20388;-80
2021/11/20 03:20:57;;;;;;;21.77;12.40;;;;;;;;;;4942936;29;20043;-80
2021/11/20 03:24:04;;;;;;;17.75;10.88;;;;;;;;;;4943998;29;20043;-80
2021/11/20 03:27:09;;;;;;;21.02;11.07;;;;;;;;;;4943829;29;20051;-78
2021/11/20 03:30:14;;;;;;;17.95;10.90;;;;;;;;;;4943564;29;20047;-80
2021/11/20 03:33:21;;;;;;;22.88;12.30;;;;;;;;;;4943163;29;20059;-80
2021/11/20 03:36:26;;;;;;;23.58;12.13;;;;;;;;;;4944214;29;20053;-78
2021/11/20 03:39:34;;;;;;;22.17;12.77;;;;;;;;;;4932706;29;20055;-79
2021/11/20 03:42:40;;;;;;;19.15;11.68;;;;;;;;;;4944039;29;20051;-79
2021/11/20 03:45:45;;;;;;;20.58;11.82;;;;;;;;;;4944263;29;20038;-78
2021/11/20 03:48:49;;;;;;;20.92;11.25;;;;;;;;;;4943953;29;20047;-79
2021/11/20 03:51:54;;;;;;;21.10;11.57;;;;;;;;;;4943758;29;20047;-79
2021/11/20 03:55:00;;;;;;;20.13;11.63;;;;;;;;;;4932802;29;20081;-80
2021/11/20 03:58:05;;;;;;;25.40;12.40;;;;;;;;;;4943634;29;20038;-78
2021/11/20 04:01:11;;;;;;;19.70;12.13;;;;;;;;;;4943420;29;20051;-80
2021/11/20 04:04:16;;;;;;;22.00;11.57;;;;;;;;;;4943625;29;20043;-79
2021/11/20 04:07:21;;;;;;;18.77;10.25;;;;;;;;;;4943744;29;20059;-80
2021/11/20 04:10:29;;;;;;;22.20;11.93;;;;;;;;;;4944330;29;20047;-79
2021/11/20 04:13:36;;;;;;;21.08;11.77;;;;;;;;;;4944150;29;20055;-79
2021/11/20 04:16:41;;;;;;;19.17;11.88;;;;;;;;;;4943499;29;20050;-82
2021/11/20 04:19:46;;;;;;;21.27;11.10;;;;;;;;;;4943413;29;20051;-79
2021/11/20 04:22:51;;;;;;;20.13;11.73;;;;;;;;;;4943825;29;20047;-78
2021/11/20 04:25:57;;;;;;;24.25;12.10;;;;;;;;;;4943959;29;20043;-80
2021/11/20 04:29:01;;;;;;;19.50;11.93;;;;;;;;;;4932037;29;20152;-81
2021/11/20 04:32:09;;;;;;;20.67;12.52;;;;;;;;;;4942874;29;20039;-79
2021/11/20 04:35:15;;;;;;;21.42;12.30;;;;;;;;;;4942973;29;20058;-79
2021/11/20 04:38:20;;;;;;;22.25;12.13;;;;;;;;;;4943359;29;20050;-78
2021/11/20 04:41:26;;;;;;;24.88;12.57;;;;;;;;;;4942981;29;20052;-80
2021/11/20 04:44:31;;;;;;;17.83;11.38;;;;;;;;;;4942974;29;20054;-79
2021/11/20 04:47:35;;;;;;;20.98;11.80;;;;;;;;;;4943590;29;20047;-79
2021/11/20 04:50:58;;;;;;;20.15;11.85;;;;;;;;;;4943505;29;20043;-79
2021/11/20 04:54:03;;;;;;;19.95;11.70;;;;;;;;;;4943411;29;20064;-79
2021/11/20 04:57:07;;;;;;;22.85;12.43;;;;;;;;;;4942742;29;20055;-80
2021/11/20 05:00:22;;;;;;;21.67;12.55;;;;;;;;;;4942806;29;20054;-80
2021/11/20 05:03:30;;;;;;;26.63;12.50;;;;;;;;;;4942769;29;20046;-80
2021/11/20 05:06:36;;;;;;;20.35;11.13;;;;;;;;;;4942779;29;20047;-80
2021/11/20 05:09:42;;;;;;;20.45;10.93;;;;;;;;;;4942793;29;20043;-81
2021/11/20 05:12:47;;;;;;;22.33;12.88;;;;;;;;;;4943528;29;20145;-78
2021/11/20 05:16:03;;;;;;;20.73;12.20;;;;;;;;;;4942732;29;20054;-79
2021/11/20 05:19:08;;;;;;;20.50;11.75;;;;;;;;;;4942124;29;20042;-79
2021/11/20 05:22:20;;;;;;;;;;;;;;;;;;4943031;29;20047;-80
2021/11/20 05:25:24;;;;;;;25.95;12.25;;;;;;;;;;4931370;29;19925;-80
2021/11/20 05:28:29;;;;;;;22.90;11.27;;;;;;;;;;4942579;29;20055;-78
2021/11/20 05:31:36;;;;;;;20.80;11.93;;;;;;;;;;4932360;29;20047;-79
2021/11/20 05:35:00;;;;;;;22.45;12.45;;;;;;;;;;4943049;29;20432;-79
2021/11/20 05:38:05;;;;;;;24.60;12.80;;;;;;;;;;4942263;29;20050;-80
2021/11/20 05:41:10;;;;;;;24.58;11.52;;;;;;;;;;4941844;29;20062;-78
2021/11/20 05:44:22;;;;;;;25.20;12.75;;;;;;;;;;4931981;29;20046;-79
2021/11/20 05:47:34;;;;;;;19.42;12.43;;;;;;;;;;4941818;29;20511;-80
2021/11/20 05:50:38;;;;;;;33.17;12.45;;;;;;;;;;4943105;29;20059;-79
2021/11/20 05:53:44;;;;;;;26.70;13.07;;;;;;;;;;4942801;29;20063;-79
2021/11/20 05:56:50;;;;;;;24.90;13.77;;;;;;;;;;4944602;29;20120;-79
2021/11/20 05:59:57;;;;;;;23.63;14.85;;;;;;;;;;4946687;29;20022;-77
2021/11/20 06:03:01;;;;;;;30.58;15.40;;;;;;;;;;4945923;29;20059;-80
2021/11/20 06:06:19;;;;;;;23.65;15.00;;;;;;;;;;4937562;29;20051;-79
2021/11/20 06:09:24;;;;;;;25.20;15.43;;;;;;;;;;4946292;29;20050;-79
2021/11/20 06:12:29;;;;;;;35.83;15.60;;;;;;;;;;4945601;29;20098;-80
2021/11/20 06:15:33;;;;;;;28.90;15.43;;;;;;;;;;4944122;29;20067;-79
2021/11/20 06:18:38;;;;;;;33.00;15.68;;;;;;;;;;4945076;29;20396;-79
2021/11/20 06:21:42;;;;;;;29.50;15.68;;;;;;;;;;4943395;29;20050;-79
2021/11/20 06:24:52;;;;;;;26.70;15.57;;;;;;;;;;4943009;29;20046;-80
2021/11/20 06:27:56;;;;;;;30.13;16.52;;;;;;;;;;4943653;29;20050;-81
2021/11/20 06:31:02;;;;;;;23.85;15.00;;;;;;;;;;4944744;29;20039;-80
2021/11/20 06:34:10;;;;;;;23.83;14.82;;;;;;;;;;4943330;29;20063;-79
2021/11/20 06:37:39;;;;;;;32.00;18.17;;;;;;;;;;4945189;29;20051;-79
2021/11/20 06:40:46;;;;;;;36.17;17.48;;;;;;;;;;4936970;29;20051;-69
2021/11/20 06:43:52;;;;;;;38.50;20.33;;;;;;;;;;4936870;29;20055;-69
2021/11/20 06:46:57;;;;;;;39.90;20.58;;;;;;;;;;4937112;29;20042;-69
2021/11/20 06:50:04;;;;;;;44.28;21.67;;;;;;;;;;4936659;29;20396;-70
2021/11/20 06:53:30;;;;;;;41.90;20.48;;;;;;;;;;4937126;29;20051;-69
2021/11/20 06:56:53;;;;;;;42.92;20.13;;;;;;;;;;4937464;29;20046;-70
2021/11/20 07:00:27;;;;;;;38.22;18.65;;;;;;;;;;4937324;29;20395;-70
2021/11/20 07:03:42;;;;;;;38.38;18.60;;;;;;;;;;4937121;29;20051;-69
2021/11/20 07:06:53;;;;;;;46.85;18.55;;;;;;;;;;4935998;29;20046;-69
2021/11/20 07:09:57;;;;;;;33.97;19.65;;;;;;;;;;4936933;29;20046;-70
2021/11/20 07:13:01;;;;;;;41.92;17.55;;;;;;;;;;4936145;29;20059;-69
2021/11/20 07:16:08;;;;;;;31.65;17.42;;;;;;;;;;4935950;29;20774;-69
2021/11/20 07:19:14;;;;;;;35.13;17.88;;;;;;;;;;4936140;29;20050;-69
2021/11/20 07:22:55;;;;;;;29.67;15.65;;;;;;;;;;4898623;29;20621;-68
2021/11/20 07:26:00;;;;;;;54.13;17.15;;;;;;;;;;4936023;29;20043;-69
2021/11/20 07:29:05;;;;;;;42.65;17.20;;;;;;;;;;4935777;29;20052;-69
2021/11/20 07:32:20;;;;;;;41.90;18.15;;;;;;;;;;4935850;29;20051;-68
2021/11/20 07:35:32;;;;;;;37.25;17.38;;;;;;;;;;4936299;29;20054;-69
2021/11/20 07:38:39;;;;;;;33.33;16.73;;;;;;;;;;4936080;29;20502;-68
2021/11/20 07:41:43;;;;;;;40.08;17.15;;;;;;;;;;4936239;29;20054;-68
2021/11/20 07:44:49;;;;;;;30.52;16.50;;;;;;;;;;4935508;29;20672;-69
2021/11/20 07:47:53;;;;;;;40.50;19.33;;;;;;;;;;4935643;29;20066;-68
2021/11/20 07:50:58;;;;;;;25.67;16.65;;;;;;;;;;4935535;29;20050;-69
2021/11/20 07:54:15;;;;;;;33.40;18.20;;;;;;;;;;4936272;29;20411;-69
2021/11/20 07:57:51;;;;;;;28.30;17.60;;;;;;;;;;4936299;29;20051;-69
2021/11/20 08:00:57;;;;;;;31.40;16.70;;;;;;;;;;4934713;29;20042;-68
2021/11/20 08:04:02;;;;;;;30.17;17.17;;;;;;;;;;4934399;29;20054;-69
2021/11/20 08:07:16;;;;;;;33.78;17.90;;;;;;;;;;4934415;29;20051;-69
2021/11/20 08:10:40;;;;;;;34.30;17.13;;;;;;;;;;4934484;29;20047;-70
2021/11/20 08:13:45;;;;;;;30.48;17.50;;;;;;;;;;4934237;29;20515;-69
2021/11/20 08:17:18;;;;;;;28.40;15.70;;;;;;;;;;4935553;29;20038;-69
2021/11/20 08:20:46;;;;;;;35.15;16.67;;;;;;;;;;4935761;29;20043;-69
2021/11/20 08:24:19;;;;;;;24.38;14.15;;;;;;;;;;4936559;29;20600;-69
2021/11/20 08:27:24;;;;;;;22.00;13.50;;;;;;;;;;4934312;29;20050;-70
2021/11/20 08:30:40;;;;;;;27.75;15.93;;;;;;;;;;4934401;29;20046;-69
2021/11/20 08:33:44;;;;;;;19.67;13.02;;;;;;;;;;4933913;29;20055;-67
2021/11/20 08:37:20;;;;;;;23.55;15.20;;;;;;;;;;4934653;29;20055;-69
2021/11/20 08:40:32;;;;;;;27.20;14.77;;;;;;;;;;4934668;29;20063;-69
2021/11/20 08:43:37;;;;;;;20.27;14.02;;;;;;;;;;4934982;29;20038;-68
2021/11/20 08:46:53;;;;;;;18.73;12.38;;;;;;;;;;4934929;29;20066;-69
2021/11/20 08:49:58;;;;;;;22.23;12.80;;;;;;;;;;4934455;29;20047;-68
2021/11/20 08:53:03;;;;;;;22.33;13.00;;;;;;;;;;4934418;29;20407;-68
2021/11/20 08:56:09;;;;;;;21.85;13.38;;;;;;;;;;4934223;29;20666;-68
2021/11/20 08:59:39;;;;;;;19.23;12.27;;;;;;;;;;4934165;29;20051;-70
2021/11/20 09:02:51;;;;;;;22.88;12.13;;;;;;;;;;4934877;29;20534;-69
2021/11/20 09:05:58;;;;;;;23.80;14.15;;;;;;;;;;4934759;29;20051;-69
2021/11/20 09:09:09;;;;;;;20.58;12.32;;;;;;;;;;4933655;29;20050;-69
2021/11/20 09:12:14;;;;;;;19.60;13.32;;;;;;;;;;4933445;29;20138;-70
2021/11/20 09:15:31;;;;;;;19.50;13.20;;;;;;;;;;4933211;29;20062;-69
2021/11/20 09:18:37;;;;;;;23.70;15.23;;;;;;;;;;4933914;29;20054;-69
2021/11/20 09:21:43;;;;;;;29.80;15.30;;;;;;;;;;4933085;29;20039;-69
2021/11/20 09:25:13;;;;;;;21.88;13.27;;;;;;;;;;4933344;29;20050;-71
2021/11/20 09:28:22;;;;;;;17.70;12.68;;;;;;;;;;4921105;29;20063;-68
2021/11/20 09:31:28;;;;;;;22.25;11.23;;;;;;;;;;4931845;29;20051;-70
2021/11/20 09:34:34;;;;;;;30.02;14.55;;;;;;;;;;4932057;29;20415;-69
2021/11/20 09:37:57;;;;;;;25.15;15.93;;;;;;;;;;4933412;29;20475;-69
2021/11/20 09:41:07;;;;;;;23.75;14.45;;;;;;;;;;4932427;29;20050;-69
2021/11/20 09:44:13;;;;;;;20.00;12.77;;;;;;;;;;4932198;29;20055;-69
2021/11/20 09:47:29;;;;;;;19.38;12.60;;;;;;;;;;4932984;29;20042;-69
2021/11/20 09:50:35;;;;;;;16.70;11.73;;;;;;;;;;4933324;29;20046;-68
2021/11/20 09:53:40;;;;;;;17.52;10.95;;;;;;;;;;4933010;29;20042;-66
2021/11/20 09:56:51;;;;;;;19.20;11.65;;;;;;;;;;4933697;29;20133;-67
2021/11/20 10:00:05;;;;;;;16.27;10.50;;;;;;;;;;4934084;29;20055;-68
2021/11/20 10:03:28;;;;;;;21.25;12.88;;;;;;;;;;4934265;29;20066;-68
2021/11/20 10:06:35;;;;;;;17.65;11.52;;;;;;;;;;4934025;29;20042;-69
2021/11/20 10:09:44;;;;;;;22.58;11.85;;;;;;;;;;4932840;29;20046;-72
2021/11/20 10:12:51;;;;;;;16.98;10.88;;;;;;;;;;4931195;29;20086;-69
2021/11/20 10:16:04;;;;;;;15.38;10.57;;;;;;;;;;4931948;29;20839;-70
2021/11/20 10:19:16;;;;;;;16.05;10.95;;;;;;;;;;4931648;29;20043;-68
2021/11/20 10:22:40;;;;;;;15.43;10.30;;;;;;;;;;4932790;29;20059;-68
2021/11/20 10:25:47;;;;;;;15.43;9.55;;;;;;;;;;4933285;29;20043;-68
2021/11/20 10:29:11;;;;;;;16.10;9.68;;;;;;;;;;4933527;29;20056;-68
2021/11/20 10:32:15;;;;;;;22.83;10.68;;;;;;;;;;4933060;29;20064;-69
2021/11/20 10:35:22;;;;;;;16.27;10.15;;;;;;;;;;4933455;29;20411;-68
2021/11/20 10:38:32;;;;;;;15.45;8.88;;;;;;;;;;4933665;29;20050;-68
2021/11/20 10:41:36;;;;;;;16.45;7.80;;;;;;;;;;4933504;29;20047;-68
2021/11/20 10:44:41;;;;;;;10.80;7.68;;;;;;;;;;4936730;29;20039;-69
2021/11/20 10:47:56;;;;;;;10.05;7.10;;;;;;;;;;4937007;29;20043;-68
2021/11/20 10:51:15;;;;;;;17.52;9.65;;;;;;;;;;4937054;29;20045;-68
2021/11/20 10:54:38;;;;;;;29.42;16.80;;;;;;;;;;4936217;29;20040;-68
2021/11/20 10:58:01;;;;;;;59.30;34.75;;;;;;;;;;4936616;29;20051;-67
2021/11/20 11:01:11;;;;;;;75.22;38.92;;;;;;;;;;4937419;29;20383;-68
2021/11/20 11:04:18;;;;;;;70.18;39.78;;;;;;;;;;4937049;29;20046;-68
2021/11/20 11:07:29;;;;;;;69.90;38.05;;;;;;;;;;4936679;29;20392;-68
2021/11/20 11:10:36;;;;;;;74.85;41.00;;;;;;;;;;4936672;29;20050;-68
2021/11/20 11:13:59;;;;;;;59.33;32.45;;;;;;;;;;4936906;29;20523;-67
2021/11/20 11:17:23;;;;;;;59.55;33.67;;;;;;;;;;4935843;29;20071;-72
2021/11/20 11:20:46;;;;;;;56.88;32.85;;;;;;;;;;4935599;29;20038;-71
2021/11/20 11:23:50;;;;;;;49.28;29.63;;;;;;;;;;4935728;29;20050;-71
2021/11/20 11:26:54;;;;;;;49.75;27.45;;;;;;;;;;4936073;29;20062;-67
2021/11/20 11:30:02;;;;;;;33.75;19.30;;;;;;;;;;4935845;29;20506;-74
2021/11/20 11:33:07;;;;;;;32.13;17.10;;;;;;;;;;4935831;29;20062;-66
2021/11/20 11:36:22;;;;;;;23.67;14.02;;;;;;;;;;4935838;29;20051;-67
2021/11/20 11:39:33;;;;;;;19.58;11.55;;;;;;;;;;4936070;29;20501;-67
2021/11/20 11:42:44;;;;;;;13.48;8.73;;;;;;;;;;4935742;29;20050;-68
2021/11/20 11:45:49;;;;;;;15.80;7.93;;;;;;;;;;4935888;29;20031;-68
2021/11/20 11:48:56;;;;;;;10.52;6.65;;;;;;;;;;4935433;29;20404;-68
2021/11/20 11:52:00;;;;;;;19.20;7.88;;;;;;;;;;4935995;29;20039;-68
2021/11/20 11:55:14;;;;;;;11.98;7.10;;;;;;;;;;4934052;29;20068;-67
2021/11/20 11:58:29;;;;;;;15.77;8.85;;;;;;;;;;4935905;29;20040;-69
2021/11/20 12:01:44;;;;;;;10.48;6.88;;;;;;;;;;4935389;29;20475;-68
2021/11/20 12:04:50;;;;;;;13.75;7.55;;;;;;;;;;4935159;29;20047;-69
2021/11/20 12:08:15;;;;;;;14.15;8.15;;;;;;;;;;4935155;29;20404;-69
2021/11/20 12:11:28;;;;;;;11.52;8.30;;;;;;;;;;4934743;29;20507;-68
2021/11/20 12:14:36;;;;;;;18.70;8.15;;;;;;;;;;4935212;29;20043;-69
2021/11/20 12:17:59;;;;;;;11.93;8.20;;;;;;;;;;4935544;29;20048;-67
2021/11/20 12:21:16;;;;;;;18.70;9.30;;;;;;;;;;4934026;29;20044;-70
2021/11/20 12:24:51;;;;;;;12.88;7.30;;;;;;;;;;4932983;29;20627;-68
2021/11/20 12:27:57;;;;;;;13.98;7.80;;;;;;;;;;4935557;29;20047;-69
2021/11/20 12:31:08;;;;;;;14.52;8.63;;;;;;;;;;4934070;29;20047;-68
2021/11/20 12:34:21;;;;;;;14.45;8.73;;;;;;;;;;4934013;29;20051;-68
2021/11/20 12:37:47;;;;;;;16.23;8.63;;;;;;;;;;4934687;29;20043;-68
2021/11/20 12:41:01;;;;;;;12.27;7.93;;;;;;;;;;4935320;29;20035;-68
2021/11/20 12:44:05;;;;;;;19.35;8.80;;;;;;;;;;4935186;29;20047;-66
2021/11/20 12:47:29;;;;;;;16.08;8.75;;;;;;;;;;4934874;29;20056;-66
2021/11/20 12:50:33;;;;;;;13.80;6.78;;;;;;;;;;4934139;29;20043;-68
2021/11/20 12:53:53;;;;;;;11.30;5.28;;;;;;;;;;4934515;29;20567;-68
2021/11/20 12:57:26;;;;;;;8.50;4.75;;;;;;;;;;4934815;29;20047;-68
2021/11/20 13:00:33;;;;;;;11.38;4.90;;;;;;;;;;4908645;29;20035;-69
2021/11/20 13:03:39;;;;;;;7.10;4.60;;;;;;;;;;4934838;29;20044;-68
2021/11/20 13:06:46;;;;;;;8.40;4.70;;;;;;;;;;4934124;29;20472;-68
2021/11/20 13:09:59;;;;;;;10.52;4.93;;;;;;;;;;4934654;29;20047;-68
2021/11/20 13:13:12;;;;;;;5.20;3.65;;;;;;;;;;4934155;29;20051;-68
2021/11/20 13:16:29;;;;;;;4.70;3.17;;;;;;;;;;4934451;29;20392;-68
2021/11/20 13:19:42;;;;;;;5.50;3.28;;;;;;;;;;4934214;29;20388;-71
2021/11/20 13:22:47;;;;;;;4.50;2.40;;;;;;;;;;4934090;29;20574;-68
2021/11/20 13:26:00;;;;;;;3.97;2.42;;;;;;;;;;4933921;29;20047;-69
2021/11/20 13:29:06;;;;;;;4.00;2.55;;;;;;;;;;4933347;29;20040;-69
2021/11/20 13:32:12;;;;;;;4.93;2.38;;;;;;;;;;4933579;29;20090;-70
2021/11/20 13:35:20;;;;;;;3.30;2.17;;;;;;;;;;4932745;29;20060;-68
2021/11/20 13:38:25;;;;;;;4.70;2.80;;;;;;;;;;4933739;29;20048;-67
2021/11/20 13:41:29;;;;;;;4.30;2.67;;;;;;;;;;4933677;29;20043;-68
2021/11/20 13:44:34;;;;;;;4.65;2.40;;;;;;;;;;4933694;29;20047;-66
2021/11/20 13:47:39;;;;;;;4.90;2.28;;;;;;;;;;4933711;29;20051;-67
2021/11/20 13:50:44;;;;;;;2.72;1.85;;;;;;;;;;4933114;29;20039;-68
2021/11/20 13:53:53;;;;;;;4.72;2.65;;;;;;;;;;4933700;29;20047;-68
2021/11/20 13:56:57;;;;;;;3.95;2.10;;;;;;;;;;4932958;29;20047;-68
2021/11/20 14:00:12;;;;;;;3.92;2.42;;;;;;;;;;4934025;29;20047;-68
2021/11/20 14:03:25;;;;;;;4.00;1.98;;;;;;;;;;4933668;29;20052;-67
2021/11/20 14:06:30;;;;;;;3.38;2.22;;;;;;;;;;4933919;29;20047;-67
2021/11/20 14:09:43;;;;;;;4.07;2.55;;;;;;;;;;4933679;29;20055;-67
2021/11/20 14:12:52;;;;;;;5.68;2.42;;;;;;;;;;4933683;29;20043;-68
2021/11/20 14:15:56;;;;;;;6.07;2.35;;;;;;;;;;4933702;29;20052;-67
2021/11/20 14:19:01;;;;;;;4.68;2.75;;;;;;;;;;4937707;29;20476;-66
2021/11/20 14:22:06;;;;;;;5.90;3.00;;;;;;;;;;4936361;29;20043;-68
2021/11/20 14:25:24;;;;;;;5.88;2.55;;;;;;;;;;4936960;29;20039;-68
2021/11/20 14:28:41;;;;;;;6.28;3.00;;;;;;;;;;4937388;29;20296;-68
2021/11/20 14:31:47;;;;;;;6.75;3.00;;;;;;;;;;4937273;29;20381;-68
2021/11/20 14:34:51;;;;;;;6.15;3.00;;;;;;;;;;4936288;29;20039;-68
2021/11/20 14:37:59;;;;;;;6.32;3.72;;;;;;;;;;4937394;29;20052;-67
2021/11/20 14:41:04;;;;;;;5.35;3.20;;;;;;;;;;4937371;29;20043;-68
2021/11/20 14:44:09;;;;;;;5.32;3.00;;;;;;;;;;4936939;29;20043;-68
2021/11/20 14:47:16;;;;;;;5.03;3.03;;;;;;;;;;4936964;29;20484;-67
2021/11/20 14:50:22;;;;;;;4.88;2.92;;;;;;;;;;4937127;29;20036;-69
2021/11/20 14:53:34;;;;;;;4.57;2.60;;;;;;;;;;4937118;29;20043;-68
2021/11/20 14:56:38;;;;;;;5.45;3.20;;;;;;;;;;4936633;29;20603;-67
2021/11/20 14:59:44;;;;;;;7.05;3.42;;;;;;;;;;4935802;29;20040;-68
2021/11/20 15:02:48;;;;;;;7.10;3.70;;;;;;;;;;4936410;29;20043;-68
2021/11/20 15:05:55;;;;;;;4.10;2.78;;;;;;;;;;4936933;29;20484;-68
2021/11/20 15:08:59;;;;;;;4.22;2.80;;;;;;;;;;4936503;29;20500;-69
2021/11/20 15:12:04;;;;;;;8.02;3.05;;;;;;;;;;4936660;29;20100;-67
2021/11/20 15:15:08;;;;;;;4.22;3.13;;;;;;;;;;4936520;29;20047;-68
2021/11/20 15:18:12;;;;;;;9.75;3.08;;;;;;;;;;4936531;29;20047;-67
2021/11/20 15:21:17;;;;;;;8.10;3.17;;;;;;;;;;4936566;29;20373;-67
2021/11/20 15:24:22;;;;;;;19.42;8.63;;;;;;;;;;4935488;29;20040;-67
2021/11/20 15:27:26;;;;;;;21.55;10.88;;;;;;;;;;4936305;29;20043;-68
2021/11/20 15:30:31;;;;;;;29.27;10.40;;;;;;;;;;4936381;29;20047;-67
2021/11/20 15:33:36;;;;;;;23.70;7.35;;;;;;;;;;4935641;29;20058;-68
2021/11/20 15:36:40;;;;;;;13.65;6.47;;;;;;;;;;4935932;29;20055;-68
2021/11/20 15:39:44;;;;;;;8.65;4.57;;;;;;;;;;4936207;29;20048;-68
2021/11/20 15:42:48;;;;;;;16.42;5.07;;;;;;;;;;4935203;29;20043;-67
2021/11/20 15:45:53;;;;;;;18.55;5.55;;;;;;;;;;4934669;29;20526;-67
2021/11/20 15:48:57;;;;;;;22.67;6.38;;;;;;;;;;4935248;29;20048;-67
2021/11/20 15:52:02;;;;;;;19.10;6.95;;;;;;;;;;4935577;29;20046;-68
2021/11/20 15:55:08;;;;;;;17.48;6.88;;;;;;;;;;4934436;29;20047;-68
2021/11/20 15:58:12;;;;;;;25.25;6.75;;;;;;;;;;4935532;29;20043;-67
2021/11/20 16:01:16;;;;;;;26.50;7.68;;;;;;;;;;4935641;29;20039;-68
2021/11/20 16:04:21;;;;;;;55.10;23.45;;;;;;;;;;4935634;29;20048;-68
2021/11/20 16:07:26;;;;;;;51.75;20.65;;;;;;;;;;4935617;29;20058;-68
2021/11/20 16:10:31;;;;;;;37.15;14.73;;;;;;;;;;4935623;29;20046;-68
2021/11/20 16:13:35;;;;;;;29.48;9.30;;;;;;;;;;4935234;29;20050;-67
2021/11/20 16:16:39;;;;;;;38.95;9.48;;;;;;;;;;4935045;29;20056;-68
2021/11/20 16:19:44;;;;;;;29.48;6.85;;;;;;;;;;4934787;29;20484;-67
2021/11/20 16:22:48;;;;;;;16.13;5.93;;;;;;;;;;4935035;29;20051;-67
2021/11/20 16:25:53;;;;;;;24.27;5.93;;;;;;;;;;4934883;29;20043;-68
2021/11/20 16:28:57;;;;;;;23.08;6.55;;;;;;;;;;4934925;29;20407;-68
2021/11/20 16:32:02;;;;;;;22.88;7.80;;;;;;;;;;4935017;29;20504;-68
2021/11/20 16:35:06;;;;;;;27.63;7.30;;;;;;;;;;4934880;29;20056;-66
2021/11/20 16:38:10;;;;;;;23.30;8.73;;;;;;;;;;4933251;29;20050;-66
2021/11/20 16:41:14;;;;;;;30.67;11.65;;;;;;;;;;4933624;29;20056;-66
2021/11/20 16:44:19;;;;;;;26.52;9.95;;;;;;;;;;4934340;29;20055;-66
2021/11/20 16:47:23;;;;;;;27.08;10.05;;;;;;;;;;4934680;29;20066;-66
2021/11/20 16:53:50;;;;;;;18.17;9.63;;;;;;;;;;4934623;29;20048;-66
2021/11/20 16:56:56;;;;;;;26.85;9.63;;;;;;;;;;4934109;29;20063;-66
2021/11/20 17:00:00;;;;;;;34.17;15.70;;;;;;;;;;4934638;29;20496;-66
2021/11/20 17:03:04;;;;;;;31.05;13.23;;;;;;;;;;4934259;29;20050;-65
2021/11/20 17:06:09;;;;;;;29.40;12.27;;;;;;;;;;4933988;29;20042;-66
2021/11/20 17:09:13;;;;;;;34.40;16.33;;;;;;;;;;4934490;29;20047;-65
2021/11/20 17:12:17;;;;;;;29.70;17.20;;;;;;;;;;4933164;29;20070;-66
2021/11/20 17:15:22;;;;;;;29.27;17.38;;;;;;;;;;4934222;29;20051;-67
2021/11/20 17:18:26;;;;;;;26.10;12.57;;;;;;;;;;4933464;29;20035;-67
2021/11/20 17:21:31;;;;;;;33.30;14.02;;;;;;;;;;4934306;29;20054;-67
2021/11/20 17:24:36;;;;;;;23.25;11.95;;;;;;;;;;4934022;29;20046;-67
2021/11/20 17:27:40;;;;;;;19.88;10.50;;;;;;;;;;4934056;29;20400;-67
2021/11/20 17:30:44;;;;;;;27.73;11.43;;;;;;;;;;4934004;29;20051;-66
2021/11/20 17:33:49;;;;;;;30.92;12.73;;;;;;;;;;4933561;29;20051;-65
2021/11/20 17:36:53;;;;;;;21.80;12.80;;;;;;;;;;4932865;29;20415;-71
2021/11/20 17:39:58;;;;;;;28.00;13.00;;;;;;;;;;4934755;29;20050;-73
2021/11/20 17:43:02;;;;;;;34.58;14.43;;;;;;;;;;4939258;29;20051;-82
2021/11/20 17:46:07;;;;;;;31.83;18.55;;;;;;;;;;4943995;29;20657;-84
2021/11/20 17:49:11;;;;;;;40.45;22.08;;;;;;;;;;4945366;29;20067;-85
2021/11/20 17:52:16;;;;;;;35.45;23.02;;;;;;;;;;4943083;29;20039;-85
2021/11/20 17:55:24;;;;;;;34.65;21.00;;;;;;;;;;4944903;29;20051;-82
2021/11/20 17:58:29;;;;;;;43.60;20.40;;;;;;;;;;4944006;29;20050;-82
2021/11/20 18:01:33;;;;;;;42.40;16.65;;;;;;;;;;4944014;29;20046;-84
2021/11/20 18:04:38;;;;;;;40.20;17.73;;;;;;;;;;4944275;29;20055;-83
2021/11/20 18:07:43;;;;;;;45.92;22.02;;;;;;;;;;4943855;29;20055;-86
2021/11/20 18:10:49;;;;;;;56.55;25.02;;;;;;;;;;4943535;29;20047;-83
2021/11/20 18:13:53;;;;;;;48.55;24.92;;;;;;;;;;4942566;29;20051;-86
2021/11/20 18:16:58;;;;;;;45.10;21.90;;;;;;;;;;4943078;29;20051;-82
2021/11/20 18:20:03;;;;;;;40.38;21.05;;;;;;;;;;4943452;29;20043;-84
2021/11/20 18:23:08;;;;;;;47.05;27.05;;;;;;;;;;4943427;29;20043;-83
2021/11/20 18:26:13;;;;;;;41.50;24.70;;;;;;;;;;4943501;29;20046;-84
2021/11/20 18:29:17;;;;;;;45.17;22.17;;;;;;;;;;4942307;29;20047;-82
2021/11/20 18:32:22;;;;;;;44.03;22.15;;;;;;;;;;4942637;29;20058;-84
2021/11/20 18:35:27;;;;;;;46.90;22.58;;;;;;;;;;4942490;29;20054;-83